createdAt,value
2019-04-26T11:43:02.789Z,49.08
2019-04-26T11:48:05.372Z,49.76
2019-04-26T11:53:10.148Z,49.63
2019-04-26T11:58:09.697Z,49.64
2019-04-26T12:03:10.855Z,49.72
2019-04-26T12:08:16.452Z,48.96
2019-04-26T12:13:17.365Z,50.05
2019-04-26T12:18:18.378Z,50.08
2019-04-26T12:23:21.483Z,49.17
2019-04-26T12:28:22.067Z,49.34
2019-04-26T12:33:22.952Z,49.45
2019-04-26T12:38:24.182Z,48.66
2019-04-26T12:43:26.717Z,48.82
2019-04-26T12:48:28.398Z,47.84
2019-04-26T12:53:31.318Z,46.75
2019-04-26T12:58:32.196Z,46.11
2019-04-26T13:03:33.163Z,45.34
2019-04-26T13:08:34.038Z,45.55
2019-04-26T13:13:39.749Z,44.58
2019-04-26T13:18:41.112Z,44.20
2019-04-26T13:23:43.711Z,43.86
2019-04-26T13:28:44.584Z,43.39
2019-04-26T13:33:45.481Z,43.23
2019-04-26T13:38:46.461Z,42.73
2019-04-26T13:43:47.333Z,42.41
2019-04-26T13:48:50.108Z,42.55
2019-04-26T13:53:51.080Z,42.50
2019-04-26T13:58:54.373Z,42.96
2019-04-26T14:03:54.775Z,43.54
2019-04-26T14:08:58.155Z,43.40
2019-04-26T14:13:59.951Z,42.93
2019-04-26T14:19:01.700Z,44.94
2019-04-26T14:24:07.651Z,44.98
2019-04-26T14:29:08.626Z,45.63
2019-04-26T14:34:11.930Z,46.46
2019-04-26T14:39:14.931Z,47.64
2019-04-26T14:44:16.161Z,47.66
2019-04-26T14:49:19.163Z,48.15
2019-04-26T14:54:20.344Z,49.55
2019-04-26T14:59:44.420Z,49.30
2019-04-26T15:04:47.688Z,50.41
2019-04-26T15:09:48.551Z,50.97
2019-04-26T15:14:53.234Z,50.96
2019-04-26T15:19:53.571Z,52.70
2019-04-26T15:24:54.883Z,53.10
2019-04-26T15:29:57.280Z,53.56
2019-04-26T15:34:58.907Z,54.80
2019-04-26T15:40:03.146Z,54.53
2019-04-26T15:45:07.237Z,53.85
2019-04-26T15:50:11.011Z,55.08
2019-04-26T15:55:13.331Z,58.11
2019-04-26T16:00:14.692Z,58.15
2019-04-26T16:05:16.731Z,59.11
2019-04-26T16:10:17.812Z,60.79
2019-04-26T16:15:18.680Z,59.32
2019-04-26T16:20:19.576Z,60.16
2019-04-26T16:25:20.437Z,61.29
2019-04-26T16:30:42.838Z,61.35
2019-04-26T16:35:45.216Z,62.71
2019-04-26T16:40:50.437Z,61.01
2019-04-26T16:45:48.872Z,61.02
2019-04-26T16:50:49.864Z,62.17
2019-04-26T16:55:53.274Z,60.82
2019-04-26T17:00:57.919Z,61.27
2019-04-26T17:06:06.727Z,60.93
2019-04-26T17:11:04.429Z,59.90
2019-04-26T17:16:05.764Z,59.90
2019-04-26T17:21:06.851Z,60.32
2019-04-26T17:26:13.757Z,61.41
2019-04-26T17:31:15.731Z,61.41
2019-04-26T17:36:17.302Z,60.69
2019-04-26T17:41:20.063Z,61.47
2019-04-26T17:46:22.302Z,61.87
2019-04-26T17:51:24.140Z,61.87
2019-04-26T17:56:26.064Z,62.17
2019-04-26T18:01:42.862Z,61.57
2019-04-26T18:06:32.453Z,62.09
2019-04-26T18:11:33.670Z,61.14
2019-04-26T18:16:38.006Z,61.81
2019-04-26T18:21:43.765Z,61.90
2019-04-26T18:26:47.055Z,61.19
2019-04-26T18:31:49.798Z,61.03
2019-04-26T18:36:50.713Z,61.01
2019-04-26T18:41:51.581Z,61.16
2019-04-26T18:46:57.345Z,61.85
2019-04-26T18:51:58.242Z,61.42
2019-04-26T18:57:00.608Z,62.56
2019-04-26T19:02:01.796Z,62.57
2019-04-26T19:07:02.763Z,61.68
2019-04-26T19:12:04.296Z,61.19
2019-04-26T19:17:26.054Z,61.28
2019-04-26T19:22:26.787Z,62.30
2019-04-26T19:27:27.776Z,62.68
2019-04-26T19:32:28.636Z,61.30
2019-04-26T19:37:30.383Z,62.43
2019-04-26T19:42:32.543Z,61.71
2019-04-26T19:47:43.899Z,62.29
2019-04-26T19:52:46.142Z,61.43
2019-04-26T19:58:09.651Z,61.93
2019-04-26T20:03:13.387Z,61.94
2019-04-26T20:08:13.040Z,62.61
2019-04-26T20:13:16.222Z,62.95
2019-04-26T20:18:17.661Z,63.42
2019-04-26T20:23:19.641Z,62.40
2019-04-26T20:28:22.661Z,63.56
2019-04-26T20:33:26.618Z,62.78
2019-04-26T20:38:26.778Z,63.39
2019-04-26T20:43:27.675Z,62.82
2019-04-26T20:48:30.105Z,61.74
2019-04-26T20:53:40.008Z,62.83
2019-04-26T20:58:37.614Z,63.42
2019-04-26T21:03:44.609Z,61.99
2019-04-26T21:08:42.423Z,62.42
2019-04-26T21:13:43.635Z,61.94
2019-04-26T21:18:44.641Z,61.63
2019-04-26T21:23:47.583Z,61.12
2019-04-26T21:28:54.220Z,61.52
2019-04-26T21:34:07.867Z,60.93
2019-04-26T21:39:17.061Z,61.24
2019-04-26T21:44:18.468Z,61.79
2019-04-26T21:49:20.898Z,61.68
2019-04-26T22:04:54.818Z,61.71
2019-04-26T22:10:14.398Z,62.33
2019-04-26T22:15:20.434Z,61.08
2019-04-26T22:20:23.418Z,61.26
2019-04-26T22:25:26.319Z,61.33
2019-04-26T22:30:29.701Z,61.32
2019-04-26T22:35:31.256Z,61.29
2019-04-26T22:40:33.520Z,61.37
2019-04-26T22:45:54.370Z,62.40
2019-04-26T22:50:58.377Z,61.72
2019-04-26T22:56:01.376Z,61.40
